Stations météo

réclame
Mon MeteoGroup
Utklippan, Suède (2632): Température de l'air & dewpoint: 17.10.2018 01:00:00 - 23.10.2018 01:00:00 (CEST)Utklippan, Suède (2632): Vitesse du vent & gusts: 17.10.2018 01:00:00 - 23.10.2018 01:00:00 (CEST)Utklippan, Suède (2632): Direction du vent: 17.10.2018 01:00:00 - 23.10.2018 01:00:00 (CEST)
Date & Time tt [°C] td [°C] ff [km/h] ff [knt] fx [km/h] fx [knt] dd
23.10.2018 01:00:00 9,7 5,5 48 26 64 34 WSW
23.10.2018 00:00:00 9,6 5,2 46 25 61 33 WSW
22.10.2018 23:00:00 9,8 5,6 48 26 66 36 W
22.10.2018 22:00:00 9,9 5,7 50 27 61 33 W
22.10.2018 21:00:00 10,0 5,8 49 27 62 33 WNW
22.10.2018 20:00:00 10,2 5,2 45 24 59 32 WNW
22.10.2018 19:00:00 10,5 5,5 42 23 59 32 WNW
22.10.2018 18:00:00 10,7 5,2 40 21 51 27 WNW
22.10.2018 17:00:00 11,0 4,9 40 22 58 32 WNW
22.10.2018 16:00:00 11,5 4,7 41 22 51 28 WNW
22.10.2018 15:00:00 11,7 4,7 37 20 47 26 WNW
22.10.2018 14:00:00 11,5 4,9 34 18 47 25 WNW
22.10.2018 13:00:00 11,9 4,8 42 23 52 28 WNW
22.10.2018 12:00:00 11,5 7,2 40 22 53 29 WNW
22.10.2018 11:00:00 11,3 7,2 37 20 47 25 WNW
22.10.2018 10:00:00 10,7 7,4 36 19 49 26 WNW
22.10.2018 09:00:00 11,1 7,8 39 21 54 29 WNW
22.10.2018 08:00:00 11,4 8,3 42 23 51 28 WNW
22.10.2018 07:00:00 11,8 10,7 34 18 47 26 WSW
22.10.2018 06:00:00 12,3 11,4 39 21 52 28 WSW
22.10.2018 05:00:00 12,4 11,5 44 24 54 29 SW
22.10.2018 04:00:00 12,6 11,3 45 25 55 30 SW
22.10.2018 03:00:00 12,3 11,7 43 23 52 28 SW
22.10.2018 02:00:00 12,7 11,4 41 22 57 31 SW
22.10.2018 01:00:00 12,7 11,4 36 19 50 27 SW
22.10.2018 00:00:00 12,7 11,3 36 20 51 28 SW
21.10.2018 23:00:00 12,6 11,0 40 21 50 27 SW
21.10.2018 22:00:00 12,5 11,1 41 22 54 29 SW
21.10.2018 21:00:00 12,3 10,7 38 20 49 27 SW
21.10.2018 20:00:00 12,2 10,4 37 20 48 26 SW
21.10.2018 19:00:00 12,0 10,2 34 19 45 25 SW
21.10.2018 18:00:00 11,9 10,1 35 19 45 24 SW
21.10.2018 17:00:00 11,7 9,3 36 20 46 25 SW
21.10.2018 16:00:00 12,3 9,1 34 18 43 23 SW
21.10.2018 15:00:00 12,9 9,0 33 18 40 22 SW
21.10.2018 14:00:00 12,9 8,8 29 16 37 20 SW
21.10.2018 13:00:00 13,1 8,4 29 15 35 19 WSW
21.10.2018 12:00:00 12,6 8,3 24 13 32 17 WSW
21.10.2018 11:00:00 12,5 8,4 21 11 27 15 WSW
21.10.2018 10:00:00 11,6 8,8 18 10 23 12 WSW
21.10.2018 09:00:00 10,7 9,0 16 9 20 11 WSW
21.10.2018 08:00:00 9,8 8,9 15 8 22 12 WNW
21.10.2018 07:00:00 9,4 8,6 18 10 23 13 WNW
21.10.2018 06:00:00 8,7 8,1 9 5 12 7 WNW
21.10.2018 05:00:00 8,6 7,8 10 6 13 7 WNW
21.10.2018 04:00:00 8,5 7,6 7 4 12 6 NNW
21.10.2018 03:00:00 8,7 7,6 11 6 16 9 NNW
21.10.2018 02:00:00 9,1 8,2 9 5 22 12 NW
21.10.2018 01:00:00 9,4 8,3 17 9 22 12 NNW
21.10.2018 00:00:00 10,1 9,2 16 9 19 10 NW
20.10.2018 23:00:00 10,5 9,4 14 8 21 11 NW
20.10.2018 22:00:00 10,8 9,6 18 10 24 13 WNW
20.10.2018 21:00:00 10,9 9,5 20 11 23 12 WNW
20.10.2018 20:00:00 10,9 9,3 16 9 19 10 WNW
20.10.2018 19:00:00 11,1 9,2 17 9 21 11 WNW
20.10.2018 18:00:00 10,8 8,9 18 10 21 11 WNW
20.10.2018 17:00:00 10,6 8,2 15 8 22 12 WNW
20.10.2018 16:00:00 10,7 8,3 17 9 22 12 W
20.10.2018 15:00:00 10,9 7,9 16 9 25 14 W
20.10.2018 14:00:00 10,9 7,6 20 11 26 14 W
20.10.2018 13:00:00 11,0 7,5 18 10 26 14 WNW
20.10.2018 12:00:00 10,7 7,2 19 10 29 15 WNW
20.10.2018 11:00:00 10,7 7,2 22 12 28 15 WNW
20.10.2018 10:00:00 10,5 7,0 21 11 31 17 WNW
20.10.2018 09:00:00 10,4 6,9 26 14 33 18 WNW
20.10.2018 08:00:00 10,2 7,1 18 10 25 13 WNW
20.10.2018 07:00:00 9,5 7,9 13 7 19 10 W
20.10.2018 06:00:00 9,1 7,7 10 5 31 17 WNW
20.10.2018 05:00:00 9,3 8,1 32 17 38 21 WNW
20.10.2018 04:00:00 10,0 8,1 20 11 26 14 WNW
20.10.2018 03:00:00 9,9 7,8 17 9 22 12 WNW
20.10.2018 02:00:00 9,8 7,1 19 10 22 12 WNW
20.10.2018 01:00:00 10,1 7,7 16 8 24 13 WNW
20.10.2018 00:00:00 10,6 6,9 21 12 26 14 WNW
19.10.2018 23:00:00 10,3 6,6 15 8 23 12 WSW
19.10.2018 22:00:00 10,6 7,5 19 10 24 13 SW
19.10.2018 21:00:00 10,4 7,3 16 9 21 12 SW
19.10.2018 20:00:00 10,5 7,9 17 9 22 12 SW
19.10.2018 19:00:00 10,4 8,0 16 8 21 11 SW
19.10.2018 18:00:00 10,2 7,6 13 7 18 10 WSW
19.10.2018 17:00:00 11,2 7,1 13 7 17 9 SW
19.10.2018 16:00:00 12,1 6,6 8 4 12 7 SW
19.10.2018 15:00:00 12,8 5,2 9 5 11 6 SW
19.10.2018 14:00:00 12,4 4,9 5 3 7 4 SW
19.10.2018 13:00:00 10,7 5,0 0 0 4 2 N
19.10.2018 12:00:00 10,1 4,9 2 1 5 3 ENE
19.10.2018 11:00:00 9,7 5,3 3 2 5 3 NNE
19.10.2018 10:00:00 9,7 5,1 5 3 8 5 NNE
19.10.2018 09:00:00 9,0 5,2 6 4 10 5 NNW
19.10.2018 08:00:00 8,3 4,5 8 4 11 6 NNE
19.10.2018 07:00:00 7,9 5,2 8 4 10 6 NNE
19.10.2018 06:00:00 8,3 5,1 8 4 10 6 NNW
19.10.2018 05:00:00 8,6 4,8 8 4 11 6 NNW
19.10.2018 04:00:00 8,6 4,0 8 4 12 7 NE
19.10.2018 03:00:00 9,2 4,8 10 5 13 7 NNE
19.10.2018 02:00:00 9,2 4,8 11 6 14 8 NNW
19.10.2018 01:00:00 9,5 4,9 10 6 19 10 NW
19.10.2018 00:00:00 10,1 5,3 16 8 19 10 NNE
18.10.2018 23:00:00 10,4 5,8 15 8 20 11 NNE
18.10.2018 22:00:00 10,9 7,6 14 8 25 13 NNW
18.10.2018 21:00:00 11,5 8,7 17 9 23 13 NNW
18.10.2018 20:00:00 12,0 9,0 19 10 23 13 NW
18.10.2018 19:00:00 12,6 9,1 20 11 23 12 NW
18.10.2018 18:00:00 13,2 9,3 21 11 23 12 NW
18.10.2018 17:00:00 13,1 10,5 13 7 16 9 WNW
18.10.2018 16:00:00 13,8 12,2 10 6 12 7 WSW
18.10.2018 15:00:00 13,2 12,6 10 5 19 10 WNW
18.10.2018 14:00:00 12,5 12,2 15 8 18 10 WNW
18.10.2018 13:00:00 12,1 11,9 13 7 23 13 WNW
18.10.2018 12:00:00 11,9 11,9 18 10 26 14 WNW
18.10.2018 11:00:00 11,4 11,4 7 4 28 15 WNW
18.10.2018 10:00:00 11,5 11,5 22 12 27 15 WNW
18.10.2018 09:00:00 11,2 11,2 13 7 18 10 NW
18.10.2018 08:00:00 11,2 11,2 12 7 14 8 WNW
18.10.2018 07:00:00 11,8 11,8 10 5 12 7 SW
18.10.2018 06:00:00 11,5 11,5 9 5 11 6 SW
18.10.2018 05:00:00 11,3 11,3 7 4 9 5 SW
18.10.2018 04:00:00 11,3 11,3 5 3 9 5 SW
18.10.2018 03:00:00 11,7 11,7 4 2 7 4 WSW
18.10.2018 02:00:00 11,4 11,2 6 4 8 4 WSW
18.10.2018 01:00:00 12,1 11,8 4 2 11 6 SSW
18.10.2018 00:00:00 12,6 12,1 9 5 13 7 SSW
17.10.2018 23:00:00 12,5 12,2 9 5 14 8 S
17.10.2018 22:00:00 12,8 12,5 11 6 13 7 SE
17.10.2018 21:00:00 12,7 12,5 9 5 12 7 SSE
17.10.2018 20:00:00 12,5 12,2 6 3 7 4 SE
17.10.2018 19:00:00 12,9 12,4 5 3 13 7 SSE
17.10.2018 18:00:00 12,8 12,2 11 6 13 7 SE
17.10.2018 17:00:00 13,0 11,9 0 0 8 4 N
17.10.2018 16:00:00 14,4 11,7 0 0 8 5 N
17.10.2018 15:00:00 14,2 12,6 8 4 9 5 SE
17.10.2018 14:00:00 14,3 12,2 4 2 5 3 SSE
17.10.2018 13:00:00 14,5 12,5 3 2 8 5 SSE
17.10.2018 12:00:00 13,3 12,0 3 2 5 3 NE
17.10.2018 11:00:00 13,7 12,8 0 0 6 3 N
17.10.2018 10:00:00 13,5 12,6 3 2 6 3 W
17.10.2018 09:00:00 13,0 12,7 4 2 9 5 SW
17.10.2018 08:00:00 11,8 11,5 4 2 6 4 SSE
17.10.2018 07:00:00 12,0 11,4 3 2 16 9 WNW
17.10.2018 06:00:00 12,2 11,6 10 5 12 7 WNW
17.10.2018 05:00:00 12,2 10,6 8 4 13 7 SW
17.10.2018 04:00:00 12,5 11,1 9 5 14 8 SSW
17.10.2018 03:00:00 12,4 11,5 8 5 12 7 S
17.10.2018 02:00:00 12,5 11,2 10 5 12 7 SSW
17.10.2018 01:00:00 12,7 11,9 9 5 14 7 SSW

tt = Température de l'air
td = dewpoint
ff = Vitesse du vent
fx = gusts
dd = Direction du vent

stations d'obs. à proximité